createdAt,value
2022-10-22T00:00:45.310Z,2.05
2022-10-22T00:03:28.894Z,1.45
2022-10-22T00:06:02.706Z,4.00
2022-10-22T00:08:34.282Z,2.90
2022-10-22T00:11:28.136Z,1.80
2022-10-22T00:14:08.909Z,2.55
2022-10-22T00:17:11.449Z,2.85
2022-10-22T00:19:49.951Z,1.75
2022-10-22T00:25:33.539Z,2.17
2022-10-22T00:28:12.070Z,1.40
2022-10-22T00:30:49.004Z,1.27
2022-10-22T00:33:27.244Z,2.50
2022-10-22T00:36:11.150Z,1.77
2022-10-22T00:38:46.718Z,2.50
2022-10-22T00:41:32.977Z,0.63
2022-10-22T00:44:20.694Z,0.80
2022-10-22T00:46:59.146Z,1.75
2022-10-22T00:49:57.510Z,1.08
2022-10-22T00:52:44.402Z,0.98
2022-10-22T00:55:24.105Z,0.70
2022-10-22T00:58:05.109Z,1.00
2022-10-22T01:00:50.941Z,1.30
2022-10-22T01:03:29.737Z,0.75
2022-10-22T01:06:08.418Z,1.80
2022-10-22T01:09:12.766Z,1.75
2022-10-22T01:12:02.189Z,2.25
2022-10-22T01:14:51.914Z,1.10
2022-10-22T01:17:53.201Z,2.90
2022-10-22T01:21:02.219Z,0.98
2022-10-22T01:24:20.620Z,1.67
2022-10-22T01:27:34.548Z,1.63
2022-10-22T01:30:17.405Z,1.08
2022-10-22T01:33:03.738Z,4.00
2022-10-22T01:35:46.922Z,3.15
2022-10-22T01:38:37.140Z,1.45
2022-10-22T01:41:41.341Z,1.00
2022-10-22T01:47:51.907Z,3.53
2022-10-22T01:50:46.420Z,1.10
2022-10-22T01:53:32.949Z,2.92
2022-10-22T01:56:23.200Z,1.15
2022-10-22T01:59:09.176Z,1.92
2022-10-22T02:01:51.198Z,1.83
2022-10-22T02:04:54.554Z,2.20
2022-10-22T02:07:32.050Z,0.93
2022-10-22T02:10:23.520Z,2.22
2022-10-22T02:12:58.630Z,1.40
2022-10-22T02:15:36.168Z,4.18
2022-10-22T02:18:14.114Z,2.30
2022-10-22T02:20:51.950Z,1.70
2022-10-22T02:23:43.235Z,1.67
2022-10-22T02:26:18.949Z,2.63
2022-10-22T02:29:19.377Z,1.70
2022-10-22T02:31:56.526Z,1.75
2022-10-22T02:34:44.432Z,4.25
2022-10-22T02:37:24.585Z,1.98
2022-10-22T02:40:08.489Z,2.30
2022-10-22T02:42:39.346Z,1.67
2022-10-22T02:45:16.252Z,1.30
2022-10-22T02:47:46.413Z,1.10
2022-10-22T02:50:15.975Z,1.88
2022-10-22T02:52:46.811Z,1.90
2022-10-22T02:55:15.686Z,1.20
2022-10-22T02:57:44.432Z,1.05
2022-10-22T03:00:14.910Z,1.50
2022-10-22T03:02:43.494Z,1.13
2022-10-22T03:05:13.391Z,1.08
2022-10-22T03:07:44.535Z,1.13
2022-10-22T03:10:14.353Z,1.48
2022-10-22T03:12:42.903Z,2.50
2022-10-22T03:15:14.702Z,1.45
2022-10-22T03:17:44.459Z,2.30
2022-10-22T03:20:13.252Z,1.45
2022-10-22T03:22:43.743Z,2.33
2022-10-22T03:25:22.150Z,0.90
2022-10-22T03:27:53.981Z,2.17
2022-10-22T03:30:24.965Z,0.77
2022-10-22T03:32:53.563Z,1.50
2022-10-22T03:35:21.998Z,1.75
2022-10-22T03:37:51.135Z,0.60
2022-10-22T03:40:21.984Z,3.50
2022-10-22T03:42:53.376Z,0.95
2022-10-22T03:45:22.435Z,0.55
2022-10-22T03:47:52.803Z,0.93
2022-10-22T03:50:21.291Z,1.90
2022-10-22T03:52:49.812Z,1.23
2022-10-22T03:55:22.401Z,1.25
2022-10-22T03:57:54.569Z,0.60
2022-10-22T04:00:26.403Z,0.30
2022-10-22T04:02:57.049Z,1.45
2022-10-22T04:05:28.232Z,0.65
2022-10-22T04:08:00.625Z,0.75
2022-10-22T04:10:29.785Z,1.55
2022-10-22T04:13:01.747Z,1.13
2022-10-22T04:15:31.124Z,0.80
2022-10-22T04:17:59.761Z,0.68
2022-10-22T04:20:28.596Z,1.65
2022-10-22T04:22:57.229Z,1.15
2022-10-22T04:25:25.658Z,1.50
2022-10-22T04:27:56.580Z,1.55
2022-10-22T04:30:27.726Z,1.88
2022-10-22T04:33:00.326Z,1.63
2022-10-22T04:35:29.238Z,1.95
2022-10-22T04:37:58.062Z,1.90
2022-10-22T04:40:26.613Z,2.47
2022-10-22T04:42:54.959Z,1.50
2022-10-22T04:45:26.974Z,2.45
2022-10-22T04:47:59.372Z,3.00
2022-10-22T04:50:29.255Z,1.42
2022-10-22T04:52:57.691Z,1.50
2022-10-22T04:55:28.050Z,1.73
2022-10-22T04:58:01.230Z,1.83
2022-10-22T05:03:01.531Z,2.83
2022-10-22T05:05:30.361Z,2.25
2022-10-22T05:07:59.308Z,2.00
2022-10-22T05:10:28.777Z,1.90
2022-10-22T05:13:00.101Z,3.80
2022-10-22T05:15:31.248Z,3.28
2022-10-22T05:18:07.564Z,2.38
2022-10-22T05:20:41.132Z,2.80
2022-10-22T05:23:11.236Z,1.17
2022-10-22T05:25:40.746Z,2.05
2022-10-22T05:28:09.264Z,3.67
2022-10-22T05:30:38.359Z,1.60
2022-10-22T05:33:08.319Z,1.50
2022-10-22T05:35:39.824Z,3.35
2022-10-22T05:40:40.335Z,1.35
2022-10-22T05:43:11.647Z,2.30
2022-10-22T05:45:40.816Z,2.15
2022-10-22T05:48:12.951Z,3.25
2022-10-22T05:50:45.887Z,2.88
2022-10-22T05:53:14.793Z,3.67
2022-10-22T05:55:44.507Z,5.60
2022-10-22T05:58:14.611Z,2.33
2022-10-22T06:00:44.344Z,2.10
2022-10-22T06:03:16.978Z,3.70
2022-10-22T06:05:47.860Z,4.13
2022-10-22T06:08:23.212Z,2.40
2022-10-22T06:10:52.399Z,4.95
2022-10-22T06:13:26.647Z,4.00
2022-10-22T06:15:56.006Z,2.97
2022-10-22T06:18:30.059Z,3.50
2022-10-22T06:21:03.916Z,2.47
2022-10-22T06:23:32.693Z,2.88
2022-10-22T06:26:05.195Z,4.45
2022-10-22T06:28:36.652Z,2.92
2022-10-22T06:31:06.328Z,2.25
2022-10-22T06:33:42.531Z,2.03
2022-10-22T06:36:13.549Z,3.80
2022-10-22T06:38:43.447Z,2.42
2022-10-22T06:41:15.836Z,3.92
2022-10-22T06:43:47.263Z,2.17
2022-10-22T06:46:19.977Z,2.40
2022-10-22T06:51:21.433Z,3.55
2022-10-22T06:53:50.983Z,3.20
2022-10-22T06:56:22.119Z,3.35
2022-10-22T06:58:53.905Z,4.90
2022-10-22T07:01:26.040Z,2.72
2022-10-22T07:03:58.715Z,2.40
2022-10-22T07:06:35.859Z,2.67
2022-10-22T07:09:05.603Z,2.38
2022-10-22T07:11:41.956Z,2.75
2022-10-22T07:14:10.586Z,2.55
2022-10-22T07:16:39.090Z,1.90
2022-10-22T07:19:09.257Z,3.72
2022-10-22T07:21:37.790Z,2.28
2022-10-22T07:24:07.987Z,1.88
2022-10-22T07:26:37.321Z,2.45
2022-10-22T07:29:06.367Z,2.58
2022-10-22T07:31:34.929Z,1.25
2022-10-22T07:34:03.621Z,1.92
2022-10-22T07:36:35.021Z,2.35
2022-10-22T07:39:03.991Z,1.52
2022-10-22T07:41:35.234Z,2.00
2022-10-22T07:44:03.829Z,2.60
2022-10-22T07:46:32.190Z,1.50
2022-10-22T07:49:06.235Z,2.30
2022-10-22T07:51:43.323Z,2.80
2022-10-22T07:54:13.160Z,1.52
2022-10-22T07:56:42.312Z,1.92
2022-10-22T07:59:11.798Z,7.25
2022-10-22T08:01:42.831Z,3.17
2022-10-22T08:04:11.815Z,3.10
2022-10-22T08:06:44.576Z,2.17
2022-10-22T08:09:18.427Z,3.65
2022-10-22T08:11:48.510Z,3.17
2022-10-22T08:14:20.024Z,0.80
2022-10-22T08:16:54.104Z,1.35
2022-10-22T08:19:32.403Z,0.98
2022-10-22T08:22:02.787Z,1.23
2022-10-22T08:24:33.275Z,0.80
2022-10-22T08:27:01.524Z,1.30
2022-10-22T08:29:31.312Z,1.40
2022-10-22T08:32:04.869Z,1.38
2022-10-22T08:34:33.415Z,0.93
2022-10-22T08:37:08.856Z,4.28
2022-10-22T08:39:38.830Z,1.98
2022-10-22T08:42:20.352Z,1.42
2022-10-22T08:45:09.548Z,1.42
2022-10-22T08:48:01.852Z,0.82
2022-10-22T08:50:36.256Z,1.00
2022-10-22T08:53:18.760Z,1.00
2022-10-22T08:55:48.432Z,1.83
2022-10-22T08:58:32.780Z,0.88
2022-10-22T09:01:10.588Z,2.90
2022-10-22T09:03:47.829Z,1.75
2022-10-22T09:06:20.434Z,1.40
2022-10-22T09:08:50.834Z,0.75
2022-10-22T09:11:27.368Z,1.23
2022-10-22T09:14:06.705Z,1.33
2022-10-22T09:16:45.046Z,0.93
2022-10-22T09:19:26.677Z,0.77
2022-10-22T09:22:08.624Z,1.42
2022-10-22T09:24:48.093Z,2.67
2022-10-22T09:27:30.281Z,2.17
2022-10-22T09:30:02.279Z,2.80
2022-10-22T09:32:31.792Z,1.17
2022-10-22T09:35:02.483Z,0.82
2022-10-22T09:37:34.841Z,2.25
2022-10-22T09:40:07.091Z,2.40
2022-10-22T09:42:37.907Z,1.90
2022-10-22T09:45:08.172Z,0.93
2022-10-22T09:50:40.610Z,1.52
2022-10-22T09:53:16.317Z,1.27
2022-10-22T09:55:52.606Z,2.75
2022-10-22T09:58:25.260Z,1.15
2022-10-22T10:00:59.864Z,1.10
2022-10-22T10:03:30.440Z,2.00
2022-10-22T10:06:09.595Z,2.47
2022-10-22T10:08:53.775Z,1.27
2022-10-22T10:11:37.050Z,1.90
2022-10-22T10:16:57.095Z,2.33
2022-10-22T10:19:52.412Z,2.45
2022-10-22T10:22:48.314Z,2.15
2022-10-22T10:25:34.474Z,1.45
2022-10-22T10:28:17.658Z,2.00
2022-10-22T10:30:53.490Z,1.23
2022-10-22T10:33:34.722Z,1.55
2022-10-22T10:36:12.746Z,0.77
2022-10-22T10:38:49.777Z,1.38
2022-10-22T10:41:27.328Z,2.88
2022-10-22T10:44:19.455Z,1.17
2022-10-22T10:47:00.433Z,1.92
2022-10-22T10:49:34.584Z,1.67
2022-10-22T10:52:17.463Z,2.65
2022-10-22T10:54:55.942Z,2.70
2022-10-22T10:57:41.050Z,2.00
2022-10-22T11:00:17.682Z,2.85
2022-10-22T11:03:30.943Z,3.03
2022-10-22T11:06:03.395Z,1.27
2022-10-22T11:08:35.871Z,1.63
2022-10-22T11:11:08.368Z,2.00
2022-10-22T11:13:42.791Z,2.80
2022-10-22T11:16:20.209Z,4.18
2022-10-22T11:18:54.524Z,1.83
2022-10-22T11:21:30.755Z,1.90
2022-10-22T11:24:08.868Z,4.07
2022-10-22T11:26:42.766Z,2.97
2022-10-22T11:29:16.654Z,2.72
2022-10-22T11:31:47.589Z,2.78
2022-10-22T11:34:33.376Z,1.27
2022-10-22T11:37:04.309Z,3.47
2022-10-22T11:39:40.481Z,2.03
2022-10-22T11:42:12.404Z,1.67
2022-10-22T11:45:00.178Z,1.80
2022-10-22T11:47:33.312Z,2.33
2022-10-22T11:50:20.361Z,4.80
2022-10-22T11:53:00.993Z,1.98
2022-10-22T11:55:37.219Z,2.33
2022-10-22T11:58:28.872Z,3.67
2022-10-22T12:01:19.978Z,1.33
2022-10-22T12:03:57.539Z,1.35
2022-10-22T12:06:31.607Z,3.00
2022-10-22T12:09:03.733Z,1.85
2022-10-22T12:11:41.560Z,1.83
2022-10-22T12:14:19.787Z,3.83
2022-10-22T12:16:57.745Z,1.35
2022-10-22T12:19:30.754Z,2.22
2022-10-22T12:22:05.624Z,2.50
2022-10-22T12:24:38.961Z,1.42
2022-10-22T12:27:22.538Z,1.90
2022-10-22T12:29:55.680Z,3.20
2022-10-22T12:32:24.565Z,3.83
2022-10-22T12:35:02.094Z,2.78
2022-10-22T12:37:31.587Z,2.05
2022-10-22T12:40:00.019Z,1.95
2022-10-22T12:42:28.118Z,1.98
2022-10-22T12:45:00.110Z,2.65
2022-10-22T12:47:31.742Z,2.00
2022-10-22T12:50:06.167Z,2.65
2022-10-22T12:52:37.417Z,2.40
2022-10-22T12:55:08.800Z,8.13
2022-10-22T12:57:37.279Z,2.97
2022-10-22T13:00:07.149Z,4.43
2022-10-22T13:02:37.654Z,5.70
2022-10-22T13:05:18.275Z,5.38
2022-10-22T13:07:50.944Z,2.63
2022-10-22T13:10:24.352Z,1.75
2022-10-22T13:12:58.149Z,2.83
2022-10-22T13:15:41.317Z,2.90
2022-10-22T13:18:18.749Z,1.42
2022-10-22T13:21:01.774Z,2.85
2022-10-22T13:23:31.700Z,2.33
2022-10-22T13:26:05.872Z,1.30
2022-10-22T13:28:34.209Z,2.10
2022-10-22T13:31:09.684Z,3.20
2022-10-22T13:33:40.946Z,2.05
2022-10-22T13:36:14.047Z,1.75
2022-10-22T13:38:45.210Z,2.35
2022-10-22T13:41:22.389Z,2.13
2022-10-22T13:43:58.806Z,2.58
2022-10-22T13:46:32.337Z,4.18
2022-10-22T13:49:05.091Z,3.17
2022-10-22T13:54:41.147Z,3.58
2022-10-22T13:57:19.774Z,3.22
2022-10-22T13:59:56.305Z,2.97
2022-10-22T14:02:39.163Z,3.15
2022-10-22T14:05:13.226Z,2.85
2022-10-22T14:08:00.710Z,2.80
2022-10-22T14:10:33.996Z,4.53
2022-10-22T14:13:10.491Z,5.00
2022-10-22T14:15:47.574Z,3.85
2022-10-22T14:18:30.612Z,3.97
2022-10-22T14:21:05.546Z,2.92
2022-10-22T14:23:54.295Z,2.72
2022-10-22T14:26:39.237Z,3.10
2022-10-22T14:29:09.686Z,3.83
2022-10-22T14:31:44.573Z,3.83
2022-10-22T14:34:16.513Z,3.20
2022-10-22T14:36:46.292Z,4.40
2022-10-22T14:39:19.816Z,5.22
2022-10-22T14:41:51.978Z,3.75
2022-10-22T14:44:28.220Z,1.92
2022-10-22T14:47:02.426Z,4.20
2022-10-22T14:49:35.989Z,2.30
2022-10-22T14:52:08.665Z,3.60
2022-10-22T14:54:43.007Z,2.80
2022-10-22T14:57:28.530Z,3.25
2022-10-22T14:59:58.844Z,5.70
2022-10-22T15:02:29.870Z,2.33
2022-10-22T15:05:04.511Z,4.00
2022-10-22T15:07:33.676Z,3.53
2022-10-22T15:10:04.390Z,2.05
2022-10-22T15:12:36.265Z,3.53
2022-10-22T15:15:15.694Z,3.20
2022-10-22T15:17:45.903Z,3.00
2022-10-22T15:20:15.411Z,2.67
2022-10-22T15:22:45.744Z,5.03
2022-10-22T15:25:27.021Z,2.80
2022-10-22T15:28:01.793Z,2.50
2022-10-22T15:31:05.279Z,2.50
2022-10-22T15:33:42.071Z,2.42
2022-10-22T15:36:24.909Z,3.30
2022-10-22T15:39:02.871Z,2.67
2022-10-22T15:41:37.260Z,3.60
2022-10-22T15:44:12.340Z,2.53
2022-10-22T15:49:20.735Z,3.55
2022-10-22T15:51:57.289Z,3.63
2022-10-22T15:54:32.143Z,2.97
2022-10-22T15:57:09.490Z,3.67
2022-10-22T15:59:41.588Z,2.42
2022-10-22T16:02:18.899Z,3.53
2022-10-22T16:04:54.215Z,8.20
2022-10-22T16:07:24.695Z,5.63
2022-10-22T16:09:57.615Z,4.35
2022-10-22T16:12:30.903Z,4.28
2022-10-22T16:15:07.317Z,5.72
2022-10-22T16:17:39.547Z,7.30
2022-10-22T16:20:10.613Z,3.83
2022-10-22T16:22:40.225Z,4.97
2022-10-22T16:25:10.547Z,4.28
2022-10-22T16:27:57.323Z,5.45
2022-10-22T16:30:30.728Z,4.40
2022-10-22T16:33:01.578Z,6.53
2022-10-22T16:35:35.637Z,8.20
2022-10-22T16:38:12.811Z,12.73
2022-10-22T16:40:46.299Z,9.98
2022-10-22T16:43:22.816Z,10.63
2022-10-22T16:45:59.278Z,10.15
2022-10-22T16:48:42.246Z,8.40
2022-10-22T16:51:23.350Z,9.50
2022-10-22T16:54:05.563Z,7.82
2022-10-22T16:56:39.274Z,6.05
2022-10-22T16:59:14.220Z,9.23
2022-10-22T17:01:45.541Z,9.10
2022-10-22T17:04:24.397Z,5.90
2022-10-22T17:06:57.077Z,7.35
2022-10-22T17:09:28.409Z,6.53
2022-10-22T17:12:03.519Z,6.68
2022-10-22T17:14:44.685Z,7.25
2022-10-22T17:17:16.051Z,6.65
2022-10-22T17:19:51.719Z,7.30
2022-10-22T17:22:24.978Z,6.35
2022-10-22T17:25:18.980Z,6.18
2022-10-22T17:27:58.464Z,5.22
2022-10-22T17:30:49.163Z,6.85
2022-10-22T17:33:21.423Z,6.50
2022-10-22T17:35:57.378Z,6.80
2022-10-22T17:38:48.948Z,6.88
2022-10-22T17:41:35.879Z,9.05
2022-10-22T17:44:11.839Z,11.45
2022-10-22T17:46:48.723Z,15.35
2022-10-22T17:49:20.448Z,12.43
2022-10-22T17:51:52.527Z,10.07
2022-10-22T17:54:35.207Z,11.47
2022-10-22T17:57:15.763Z,9.73
2022-10-22T17:59:56.344Z,10.85
2022-10-22T18:02:39.247Z,8.23
2022-10-22T18:05:27.724Z,10.13
2022-10-22T18:08:17.945Z,9.98
2022-10-22T18:10:51.723Z,9.50
2022-10-22T18:13:31.899Z,10.02
2022-10-22T18:16:05.473Z,8.73
2022-10-22T18:18:55.776Z,10.38
2022-10-22T18:21:34.289Z,9.73
2022-10-22T18:24:09.909Z,10.32
2022-10-22T18:26:43.453Z,13.98
2022-10-22T18:29:27.967Z,16.35
2022-10-22T18:34:57.326Z,16.50
2022-10-22T18:37:41.187Z,15.85
2022-10-22T18:40:24.418Z,19.55
2022-10-22T18:43:11.346Z,14.93
2022-10-22T18:45:46.660Z,12.13
2022-10-22T18:48:27.747Z,14.13
2022-10-22T18:51:18.031Z,11.13
2022-10-22T18:54:05.327Z,10.38
2022-10-22T18:56:50.846Z,13.13
2022-10-22T18:59:25.399Z,10.68
2022-10-22T19:01:58.715Z,11.48
2022-10-22T19:04:47.479Z,10.45
2022-10-22T19:07:33.399Z,8.05
2022-10-22T19:10:08.820Z,9.80
2022-10-22T19:12:42.668Z,11.00
2022-10-22T19:15:16.013Z,14.68
2022-10-22T19:17:46.436Z,16.23
2022-10-22T19:20:23.105Z,12.80
2022-10-22T19:22:58.176Z,13.50
2022-10-22T19:25:44.193Z,15.80
2022-10-22T19:28:19.025Z,13.98
2022-10-22T19:30:51.522Z,11.43
2022-10-22T19:33:36.893Z,14.45
2022-10-22T19:36:13.128Z,18.73
2022-10-22T19:38:56.427Z,17.80
2022-10-22T19:41:38.211Z,17.10
2022-10-22T19:44:15.692Z,17.50
2022-10-22T19:46:52.960Z,16.55
2022-10-22T19:49:33.763Z,16.58
2022-10-22T19:52:05.936Z,12.75
2022-10-22T19:54:48.504Z,14.40
2022-10-22T19:57:30.028Z,13.38
2022-10-22T20:00:07.099Z,9.07
2022-10-22T20:02:50.755Z,7.50
2022-10-22T20:05:35.550Z,9.13
2022-10-22T20:08:12.879Z,7.22
2022-10-22T20:10:47.769Z,7.35
2022-10-22T20:13:20.579Z,7.13
2022-10-22T20:15:55.756Z,9.43
2022-10-22T20:18:38.608Z,12.75
2022-10-22T20:21:21.425Z,15.55
2022-10-22T20:24:03.142Z,15.63
2022-10-22T20:26:39.268Z,14.60
2022-10-22T20:29:21.961Z,19.60
2022-10-22T20:31:59.785Z,18.70
2022-10-22T20:34:39.862Z,17.20
2022-10-22T20:37:16.334Z,13.07
2022-10-22T20:40:01.429Z,12.45
2022-10-22T20:42:50.463Z,11.60
2022-10-22T20:45:32.914Z,10.95
2022-10-22T20:48:10.721Z,12.05
2022-10-22T20:50:39.770Z,11.07
2022-10-22T20:53:17.053Z,19.27
2022-10-22T20:55:52.515Z,16.40
2022-10-22T20:58:24.632Z,19.67
2022-10-22T21:01:13.497Z,22.23
2022-10-22T21:03:56.094Z,21.38
2022-10-22T21:06:25.674Z,17.08
2022-10-22T21:08:54.499Z,17.10
2022-10-22T21:11:31.947Z,20.92
2022-10-22T21:14:15.946Z,17.73
2022-10-22T21:16:49.435Z,15.13
2022-10-22T21:19:32.752Z,15.73
2022-10-22T21:22:01.151Z,17.33
2022-10-22T21:24:29.518Z,16.33
2022-10-22T21:27:02.494Z,16.05
2022-10-22T21:29:32.616Z,13.57
2022-10-22T21:32:01.241Z,11.40
2022-10-22T21:34:30.212Z,9.35
2022-10-22T21:36:58.505Z,11.68
2022-10-22T21:39:27.156Z,10.02
2022-10-22T21:41:55.320Z,8.32
2022-10-22T21:44:23.432Z,9.82
2022-10-22T21:46:56.151Z,7.68
2022-10-22T21:49:24.181Z,10.25
2022-10-22T21:51:52.181Z,6.82
2022-10-22T21:54:21.168Z,8.50
2022-10-22T21:56:51.641Z,10.65
2022-10-22T21:59:19.972Z,8.15
2022-10-22T22:01:48.471Z,6.93
2022-10-22T22:04:18.137Z,8.60
2022-10-22T22:06:46.750Z,8.70
2022-10-22T22:09:16.390Z,10.00
2022-10-22T22:11:45.247Z,17.40
2022-10-22T22:14:14.983Z,21.35
2022-10-22T22:16:43.215Z,20.55
2022-10-22T22:19:12.439Z,14.38
2022-10-22T22:21:44.402Z,13.85
2022-10-22T22:24:14.642Z,9.77
2022-10-22T22:26:42.831Z,7.63
2022-10-22T22:29:12.914Z,8.43
2022-10-22T22:31:41.119Z,7.80
2022-10-22T22:34:12.803Z,8.38
2022-10-22T22:36:45.686Z,7.82
2022-10-22T22:39:16.205Z,7.50
2022-10-22T22:41:44.622Z,9.45
2022-10-22T22:44:19.740Z,7.18
2022-10-22T22:46:47.863Z,8.48
2022-10-22T22:49:16.084Z,7.93
2022-10-22T22:51:45.988Z,10.25
2022-10-22T22:54:16.406Z,9.80
2022-10-22T22:56:44.611Z,13.88
2022-10-22T22:59:13.750Z,12.27
2022-10-22T23:01:46.568Z,11.00
2022-10-22T23:04:19.283Z,11.15
2022-10-22T23:06:51.057Z,6.63
2022-10-22T23:09:21.661Z,7.78
2022-10-22T23:11:50.882Z,8.55
2022-10-22T23:14:21.056Z,8.20
2022-10-22T23:16:51.989Z,10.48
2022-10-22T23:19:23.277Z,8.52
2022-10-22T23:21:54.930Z,12.05
2022-10-22T23:24:26.589Z,12.70
2022-10-22T23:26:56.759Z,9.77
2022-10-22T23:29:27.556Z,9.75
2022-10-22T23:31:57.478Z,9.93
2022-10-22T23:34:27.291Z,12.63
2022-10-22T23:36:58.150Z,8.23
2022-10-22T23:39:28.914Z,9.45
2022-10-22T23:41:57.643Z,11.77
2022-10-22T23:44:28.435Z,8.43
2022-10-22T23:46:57.128Z,11.00
2022-10-22T23:49:25.569Z,8.43
2022-10-22T23:51:53.834Z,10.35
2022-10-22T23:54:23.546Z,6.78
2022-10-22T23:56:51.677Z,8.60
2022-10-22T23:59:21.404Z,10.40
